sensor_id;sensor_type;location;lat;lon;timestamp;temperature;humidity
21580;DHT22;10951;59.656;9.666;2022-08-21T00:01:42;13.40;88.30
21580;DHT22;10951;59.656;9.666;2022-08-21T00:04:10;13.30;89.20
21580;DHT22;10951;59.656;9.666;2022-08-21T00:06:40;13.30;88.10
21580;DHT22;10951;59.656;9.666;2022-08-21T00:09:07;13.20;89.60
21580;DHT22;10951;59.656;9.666;2022-08-21T00:11:36;13.20;90.00
21580;DHT22;10951;59.656;9.666;2022-08-21T00:14:06;13.20;90.50
21580;DHT22;10951;59.656;9.666;2022-08-21T00:16:34;13.10;90.40
21580;DHT22;10951;59.656;9.666;2022-08-21T00:19:01;13.00;91.20
21580;DHT22;10951;59.656;9.666;2022-08-21T00:21:29;13.00;91.80
21580;DHT22;10951;59.656;9.666;2022-08-21T00:23:55;13.00;92.20
21580;DHT22;10951;59.656;9.666;2022-08-21T00:26:22;12.90;92.40
21580;DHT22;10951;59.656;9.666;2022-08-21T00:28:49;12.80;92.90
21580;DHT22;10951;59.656;9.666;2022-08-21T00:31:17;12.70;93.30
21580;DHT22;10951;59.656;9.666;2022-08-21T00:33:45;12.70;93.70
21580;DHT22;10951;59.656;9.666;2022-08-21T00:36:13;12.60;94.60
21580;DHT22;10951;59.656;9.666;2022-08-21T00:38:40;12.70;95.20
21580;DHT22;10951;59.656;9.666;2022-08-21T00:41:09;12.70;95.40
21580;DHT22;10951;59.656;9.666;2022-08-21T00:43:56;12.60;96.10
21580;DHT22;10951;59.656;9.666;2022-08-21T00:46:24;12.60;95.80
21580;DHT22;10951;59.656;9.666;2022-08-21T00:48:54;12.50;95.50
21580;DHT22;10951;59.656;9.666;2022-08-21T00:51:51;12.50;96.30
21580;DHT22;10951;59.656;9.666;2022-08-21T00:54:22;12.50;96.40
21580;DHT22;10951;59.656;9.666;2022-08-21T00:56:57;12.40;96.60
21580;DHT22;10951;59.656;9.666;2022-08-21T00:59:28;12.30;96.60
21580;DHT22;10951;59.656;9.666;2022-08-21T01:01:56;12.20;96.90
21580;DHT22;10951;59.656;9.666;2022-08-21T01:04:23;12.20;97.40
21580;DHT22;10951;59.656;9.666;2022-08-21T01:06:50;12.10;97.40
21580;DHT22;10951;59.656;9.666;2022-08-21T01:09:18;12.10;98.20
21580;DHT22;10951;59.656;9.666;2022-08-21T01:11:45;12.10;98.10
21580;DHT22;10951;59.656;9.666;2022-08-21T01:14:13;12.00;98.30
21580;DHT22;10951;59.656;9.666;2022-08-21T01:16:45;12.00;98.20
21580;DHT22;10951;59.656;9.666;2022-08-21T01:19:13;12.00;98.70
21580;DHT22;10951;59.656;9.666;2022-08-21T01:21:41;12.00;98.90
21580;DHT22;10951;59.656;9.666;2022-08-21T01:24:09;12.00;99.10
21580;DHT22;10951;59.656;9.666;2022-08-21T01:26:37;12.00;99.00
21580;DHT22;10951;59.656;9.666;2022-08-21T01:31:55;11.90;99.90
21580;DHT22;10951;59.656;9.666;2022-08-21T01:34:22;11.90;99.90
21580;DHT22;10951;59.656;9.666;2022-08-21T01:36:49;11.80;99.90
21580;DHT22;10951;59.656;9.666;2022-08-21T01:39:16;11.80;99.90
21580;DHT22;10951;59.656;9.666;2022-08-21T01:41:43;11.80;99.90
21580;DHT22;10951;59.656;9.666;2022-08-21T01:44:10;11.80;99.90
21580;DHT22;10951;59.656;9.666;2022-08-21T01:46:37;11.90;99.90
21580;DHT22;10951;59.656;9.666;2022-08-21T01:49:05;12.00;99.90
21580;DHT22;10951;59.656;9.666;2022-08-21T01:51:32;12.00;99.90
21580;DHT22;10951;59.656;9.666;2022-08-21T01:53:59;12.00;99.90
21580;DHT22;10951;59.656;9.666;2022-08-21T01:56:26;12.00;99.90
21580;DHT22;10951;59.656;9.666;2022-08-21T01:58:54;11.90;99.90
21580;DHT22;10951;59.656;9.666;2022-08-21T02:01:21;11.90;99.90
21580;DHT22;10951;59.656;9.666;2022-08-21T02:03:48;11.90;99.90
21580;DHT22;10951;59.656;9.666;2022-08-21T02:06:16;12.00;99.90
21580;DHT22;10951;59.656;9.666;2022-08-21T02:08:45;11.90;99.90
21580;DHT22;10951;59.656;9.666;2022-08-21T02:11:12;11.80;99.90
21580;DHT22;10951;59.656;9.666;2022-08-21T02:13:39;11.70;99.90
21580;DHT22;10951;59.656;9.666;2022-08-21T02:16:06;11.70;99.90
21580;DHT22;10951;59.656;9.666;2022-08-21T02:18:35;11.70;99.90
21580;DHT22;10951;59.656;9.666;2022-08-21T02:21:03;11.60;99.90
21580;DHT22;10951;59.656;9.666;2022-08-21T02:23:31;11.50;99.90
21580;DHT22;10951;59.656;9.666;2022-08-21T02:26:03;11.60;99.90
21580;DHT22;10951;59.656;9.666;2022-08-21T02:28:31;11.70;99.90
21580;DHT22;10951;59.656;9.666;2022-08-21T02:30:59;11.60;99.90
21580;DHT22;10951;59.656;9.666;2022-08-21T02:33:26;11.60;99.90
21580;DHT22;10951;59.656;9.666;2022-08-21T02:35:54;11.50;99.90
21580;DHT22;10951;59.656;9.666;2022-08-21T02:38:29;11.60;99.90
21580;DHT22;10951;59.656;9.666;2022-08-21T02:40:57;11.70;99.90
21580;DHT22;10951;59.656;9.666;2022-08-21T02:43:26;11.70;99.90
21580;DHT22;10951;59.656;9.666;2022-08-21T02:45:56;11.70;99.90
21580;DHT22;10951;59.656;9.666;2022-08-21T02:48:29;11.70;99.90
21580;DHT22;10951;59.656;9.666;2022-08-21T02:51:03;11.80;99.90
21580;DHT22;10951;59.656;9.666;2022-08-21T02:53:31;11.80;99.90
21580;DHT22;10951;59.656;9.666;2022-08-21T02:56:00;11.80;99.90
21580;DHT22;10951;59.656;9.666;2022-08-21T02:58:34;11.90;99.90
21580;DHT22;10951;59.656;9.666;2022-08-21T03:01:02;11.90;99.90
21580;DHT22;10951;59.656;9.666;2022-08-21T03:03:30;11.90;99.90
21580;DHT22;10951;59.656;9.666;2022-08-21T03:05:57;12.00;99.90
21580;DHT22;10951;59.656;9.666;2022-08-21T03:08:24;12.00;99.90
21580;DHT22;10951;59.656;9.666;2022-08-21T03:10:53;12.10;99.90
21580;DHT22;10951;59.656;9.666;2022-08-21T03:13:20;12.00;99.90
21580;DHT22;10951;59.656;9.666;2022-08-21T03:15:48;12.00;99.90
21580;DHT22;10951;59.656;9.666;2022-08-21T03:18:15;12.00;99.90
21580;DHT22;10951;59.656;9.666;2022-08-21T03:20:44;12.10;99.90
21580;DHT22;10951;59.656;9.666;2022-08-21T03:23:12;12.10;99.90
21580;DHT22;10951;59.656;9.666;2022-08-21T03:25:45;12.10;99.90
21580;DHT22;10951;59.656;9.666;2022-08-21T03:28:18;12.10;99.90
21580;DHT22;10951;59.656;9.666;2022-08-21T03:30:47;12.00;99.90
21580;DHT22;10951;59.656;9.666;2022-08-21T03:33:14;12.10;99.90
21580;DHT22;10951;59.656;9.666;2022-08-21T03:35:44;12.10;99.90
21580;DHT22;10951;59.656;9.666;2022-08-21T03:38:11;12.10;99.90
21580;DHT22;10951;59.656;9.666;2022-08-21T03:40:41;12.10;99.90
21580;DHT22;10951;59.656;9.666;2022-08-21T03:43:09;12.10;99.90
21580;DHT22;10951;59.656;9.666;2022-08-21T03:45:37;12.20;99.90
21580;DHT22;10951;59.656;9.666;2022-08-21T03:48:05;12.10;99.90
21580;DHT22;10951;59.656;9.666;2022-08-21T03:50:35;12.20;99.90
21580;DHT22;10951;59.656;9.666;2022-08-21T03:53:10;12.20;99.90
21580;DHT22;10951;59.656;9.666;2022-08-21T03:55:49;12.20;99.90
21580;DHT22;10951;59.656;9.666;2022-08-21T03:58:19;12.20;99.90
21580;DHT22;10951;59.656;9.666;2022-08-21T04:00:47;12.20;99.90
21580;DHT22;10951;59.656;9.666;2022-08-21T04:03:15;12.20;99.90
21580;DHT22;10951;59.656;9.666;2022-08-21T04:05:43;12.30;99.90
21580;DHT22;10951;59.656;9.666;2022-08-21T04:08:13;12.40;99.90
21580;DHT22;10951;59.656;9.666;2022-08-21T04:10:41;12.60;99.90
21580;DHT22;10951;59.656;9.666;2022-08-21T04:13:09;12.50;99.90
21580;DHT22;10951;59.656;9.666;2022-08-21T04:15:36;12.50;99.90
21580;DHT22;10951;59.656;9.666;2022-08-21T04:18:04;12.50;99.90
21580;DHT22;10951;59.656;9.666;2022-08-21T04:20:31;12.50;99.90
21580;DHT22;10951;59.656;9.666;2022-08-21T04:22:58;12.50;99.90
21580;DHT22;10951;59.656;9.666;2022-08-21T04:25:25;12.60;99.90
21580;DHT22;10951;59.656;9.666;2022-08-21T04:27:53;12.50;99.90
21580;DHT22;10951;59.656;9.666;2022-08-21T04:30:20;12.70;99.90
21580;DHT22;10951;59.656;9.666;2022-08-21T04:32:54;12.70;99.90
21580;DHT22;10951;59.656;9.666;2022-08-21T04:35:22;12.70;99.90
21580;DHT22;10951;59.656;9.666;2022-08-21T04:37:50;12.70;99.90
21580;DHT22;10951;59.656;9.666;2022-08-21T04:40:19;12.80;99.90
21580;DHT22;10951;59.656;9.666;2022-08-21T04:43:04;12.80;99.90
21580;DHT22;10951;59.656;9.666;2022-08-21T04:45:34;12.80;99.90
21580;DHT22;10951;59.656;9.666;2022-08-21T04:48:04;12.80;99.90
21580;DHT22;10951;59.656;9.666;2022-08-21T04:50:47;12.80;99.90
21580;DHT22;10951;59.656;9.666;2022-08-21T04:53:22;12.70;99.90
21580;DHT22;10951;59.656;9.666;2022-08-21T04:55:50;12.80;99.90
21580;DHT22;10951;59.656;9.666;2022-08-21T04:58:20;12.80;99.90
21580;DHT22;10951;59.656;9.666;2022-08-21T05:00:48;12.90;99.90
21580;DHT22;10951;59.656;9.666;2022-08-21T05:03:16;13.10;99.90
21580;DHT22;10951;59.656;9.666;2022-08-21T05:05:44;13.20;99.90
21580;DHT22;10951;59.656;9.666;2022-08-21T05:08:15;13.30;99.90
21580;DHT22;10951;59.656;9.666;2022-08-21T05:10:42;13.40;99.90
21580;DHT22;10951;59.656;9.666;2022-08-21T05:13:11;13.50;99.90
21580;DHT22;10951;59.656;9.666;2022-08-21T05:15:40;13.60;99.90
21580;DHT22;10951;59.656;9.666;2022-08-21T05:18:06;13.70;99.90
21580;DHT22;10951;59.656;9.666;2022-08-21T05:20:34;14.00;99.90
21580;DHT22;10951;59.656;9.666;2022-08-21T05:23:07;14.20;99.90
21580;DHT22;10951;59.656;9.666;2022-08-21T05:25:34;14.50;99.90
21580;DHT22;10951;59.656;9.666;2022-08-21T05:28:02;14.80;99.90
21580;DHT22;10951;59.656;9.666;2022-08-21T05:30:29;15.10;99.90
21580;DHT22;10951;59.656;9.666;2022-08-21T05:33:01;15.40;99.00
21580;DHT22;10951;59.656;9.666;2022-08-21T05:35:29;15.70;98.60
21580;DHT22;10951;59.656;9.666;2022-08-21T05:37:56;16.00;97.90
21580;DHT22;10951;59.656;9.666;2022-08-21T05:40:24;16.20;97.50
21580;DHT22;10951;59.656;9.666;2022-08-21T05:42:52;16.30;97.00
21580;DHT22;10951;59.656;9.666;2022-08-21T05:45:23;16.30;97.20
21580;DHT22;10951;59.656;9.666;2022-08-21T05:50:38;16.20;98.00
21580;DHT22;10951;59.656;9.666;2022-08-21T05:53:05;16.20;98.00
21580;DHT22;10951;59.656;9.666;2022-08-21T05:55:35;16.10;98.10
21580;DHT22;10951;59.656;9.666;2022-08-21T05:58:08;16.00;98.30
21580;DHT22;10951;59.656;9.666;2022-08-21T06:00:35;16.00;98.70
21580;DHT22;10951;59.656;9.666;2022-08-21T06:03:02;16.20;98.80
21580;DHT22;10951;59.656;9.666;2022-08-21T06:05:29;16.50;98.80
21580;DHT22;10951;59.656;9.666;2022-08-21T06:08:04;16.90;98.20
21580;DHT22;10951;59.656;9.666;2022-08-21T06:10:31;17.40;97.80
21580;DHT22;10951;59.656;9.666;2022-08-21T06:12:57;17.70;96.20
21580;DHT22;10951;59.656;9.666;2022-08-21T06:15:25;18.00;95.80
21580;DHT22;10951;59.656;9.666;2022-08-21T06:17:53;18.30;95.20
21580;DHT22;10951;59.656;9.666;2022-08-21T06:20:21;18.60;94.70
21580;DHT22;10951;59.656;9.666;2022-08-21T06:22:48;18.80;94.40
21580;DHT22;10951;59.656;9.666;2022-08-21T06:25:15;19.00;94.00
21580;DHT22;10951;59.656;9.666;2022-08-21T06:27:42;19.10;93.80
21580;DHT22;10951;59.656;9.666;2022-08-21T06:30:09;19.40;93.50
21580;DHT22;10951;59.656;9.666;2022-08-21T06:32:36;19.70;92.80
21580;DHT22;10951;59.656;9.666;2022-08-21T06:35:05;20.00;92.30
21580;DHT22;10951;59.656;9.666;2022-08-21T06:37:33;20.20;91.80
21580;DHT22;10951;59.656;9.666;2022-08-21T06:40:00;20.20;91.30
21580;DHT22;10951;59.656;9.666;2022-08-21T06:42:28;20.10;91.40
21580;DHT22;10951;59.656;9.666;2022-08-21T06:44:57;19.90;91.60
21580;DHT22;10951;59.656;9.666;2022-08-21T06:47:24;19.60;91.90
21580;DHT22;10951;59.656;9.666;2022-08-21T06:49:51;19.50;91.90
21580;DHT22;10951;59.656;9.666;2022-08-21T06:52:18;19.60;91.60
21580;DHT22;10951;59.656;9.666;2022-08-21T06:54:45;19.80;91.10
21580;DHT22;10951;59.656;9.666;2022-08-21T06:57:12;19.90;89.90
21580;DHT22;10951;59.656;9.666;2022-08-21T06:59:40;19.80;89.60
21580;DHT22;10951;59.656;9.666;2022-08-21T07:02:07;19.80;89.20
21580;DHT22;10951;59.656;9.666;2022-08-21T07:04:34;19.80;89.20
21580;DHT22;10951;59.656;9.666;2022-08-21T07:07:01;20.00;88.50
21580;DHT22;10951;59.656;9.666;2022-08-21T07:09:28;20.10;86.90
21580;DHT22;10951;59.656;9.666;2022-08-21T07:11:56;20.20;85.40
21580;DHT22;10951;59.656;9.666;2022-08-21T07:14:23;20.20;85.80
21580;DHT22;10951;59.656;9.666;2022-08-21T07:16:50;20.10;85.00
21580;DHT22;10951;59.656;9.666;2022-08-21T07:19:18;20.10;84.60
21580;DHT22;10951;59.656;9.666;2022-08-21T07:21:45;19.80;85.40
21580;DHT22;10951;59.656;9.666;2022-08-21T07:24:13;19.60;86.40
21580;DHT22;10951;59.656;9.666;2022-08-21T07:26:41;19.50;86.60
21580;DHT22;10951;59.656;9.666;2022-08-21T07:29:08;19.50;88.60
21580;DHT22;10951;59.656;9.666;2022-08-21T07:31:35;19.40;88.50
21580;DHT22;10951;59.656;9.666;2022-08-21T07:34:02;19.40;89.90
21580;DHT22;10951;59.656;9.666;2022-08-21T07:36:29;19.30;88.50
21580;DHT22;10951;59.656;9.666;2022-08-21T07:38:59;19.20;88.80
21580;DHT22;10951;59.656;9.666;2022-08-21T07:41:28;19.10;89.50
21580;DHT22;10951;59.656;9.666;2022-08-21T07:43:56;19.00;89.40
21580;DHT22;10951;59.656;9.666;2022-08-21T07:46:24;18.70;90.00
21580;DHT22;10951;59.656;9.666;2022-08-21T07:48:52;18.60;90.10
21580;DHT22;10951;59.656;9.666;2022-08-21T07:51:23;18.50;90.40
21580;DHT22;10951;59.656;9.666;2022-08-21T07:53:52;18.50;90.30
21580;DHT22;10951;59.656;9.666;2022-08-21T07:56:19;18.40;90.50
21580;DHT22;10951;59.656;9.666;2022-08-21T07:58:46;18.30;90.20
21580;DHT22;10951;59.656;9.666;2022-08-21T08:01:14;18.40;90.20
21580;DHT22;10951;59.656;9.666;2022-08-21T08:03:41;18.30;90.70
21580;DHT22;10951;59.656;9.666;2022-08-21T08:06:08;18.40;90.70
21580;DHT22;10951;59.656;9.666;2022-08-21T08:08:39;18.30;90.80
21580;DHT22;10951;59.656;9.666;2022-08-21T08:11:09;18.40;90.80
21580;DHT22;10951;59.656;9.666;2022-08-21T08:13:47;18.40;90.90
21580;DHT22;10951;59.656;9.666;2022-08-21T08:16:15;18.30;90.70
21580;DHT22;10951;59.656;9.666;2022-08-21T08:18:42;18.20;91.10
21580;DHT22;10951;59.656;9.666;2022-08-21T08:21:10;18.20;91.00
21580;DHT22;10951;59.656;9.666;2022-08-21T08:23:37;18.10;91.40
21580;DHT22;10951;59.656;9.666;2022-08-21T08:26:04;18.10;91.70
21580;DHT22;10951;59.656;9.666;2022-08-21T08:28:32;17.90;91.80
21580;DHT22;10951;59.656;9.666;2022-08-21T08:31:00;17.90;91.90
21580;DHT22;10951;59.656;9.666;2022-08-21T08:33:27;18.00;92.20
21580;DHT22;10951;59.656;9.666;2022-08-21T08:35:55;18.00;92.50
21580;DHT22;10951;59.656;9.666;2022-08-21T08:38:24;18.10;92.60
21580;DHT22;10951;59.656;9.666;2022-08-21T08:41:13;18.10;92.40
21580;DHT22;10951;59.656;9.666;2022-08-21T08:43:44;18.00;92.40
21580;DHT22;10951;59.656;9.666;2022-08-21T08:46:15;17.90;92.50
21580;DHT22;10951;59.656;9.666;2022-08-21T08:48:48;17.80;92.30
21580;DHT22;10951;59.656;9.666;2022-08-21T08:51:27;17.70;92.60
21580;DHT22;10951;59.656;9.666;2022-08-21T08:54:00;17.60;92.90
21580;DHT22;10951;59.656;9.666;2022-08-21T08:56:32;17.50;92.80
21580;DHT22;10951;59.656;9.666;2022-08-21T08:59:09;17.30;93.20
21580;DHT22;10951;59.656;9.666;2022-08-21T09:01:39;17.30;93.70
21580;DHT22;10951;59.656;9.666;2022-08-21T09:04:06;17.20;93.90
21580;DHT22;10951;59.656;9.666;2022-08-21T09:06:39;17.10;93.50
21580;DHT22;10951;59.656;9.666;2022-08-21T09:09:47;17.10;93.60
21580;DHT22;10951;59.656;9.666;2022-08-21T09:26:23;17.00;93.90
21580;DHT22;10951;59.656;9.666;2022-08-21T09:28:56;16.90;92.70
21580;DHT22;10951;59.656;9.666;2022-08-21T09:31:29;17.00;92.70
21580;DHT22;10951;59.656;9.666;2022-08-21T09:34:09;17.10;92.90
21580;DHT22;10951;59.656;9.666;2022-08-21T09:36:43;17.10;92.50
21580;DHT22;10951;59.656;9.666;2022-08-21T09:39:13;17.20;92.40
21580;DHT22;10951;59.656;9.666;2022-08-21T09:41:40;17.40;92.50
21580;DHT22;10951;59.656;9.666;2022-08-21T09:44:08;17.40;92.20
21580;DHT22;10951;59.656;9.666;2022-08-21T09:46:35;17.50;92.10
21580;DHT22;10951;59.656;9.666;2022-08-21T09:49:04;17.60;92.10
21580;DHT22;10951;59.656;9.666;2022-08-21T09:51:50;17.70;91.40
21580;DHT22;10951;59.656;9.666;2022-08-21T09:54:18;17.70;91.10
21580;DHT22;10951;59.656;9.666;2022-08-21T09:56:58;17.70;91.20
21580;DHT22;10951;59.656;9.666;2022-08-21T09:59:45;17.70;91.10
21580;DHT22;10951;59.656;9.666;2022-08-21T10:02:28;17.80;91.20
21580;DHT22;10951;59.656;9.666;2022-08-21T10:05:15;17.80;91.30
21580;DHT22;10951;59.656;9.666;2022-08-21T10:07:43;17.80;91.40
21580;DHT22;10951;59.656;9.666;2022-08-21T10:10:15;17.70;91.80
21580;DHT22;10951;59.656;9.666;2022-08-21T10:12:50;17.70;91.70
21580;DHT22;10951;59.656;9.666;2022-08-21T10:16:07;17.80;91.70
21580;DHT22;10951;59.656;9.666;2022-08-21T10:18:42;17.80;91.90
21580;DHT22;10951;59.656;9.666;2022-08-21T10:21:23;18.00;92.20
21580;DHT22;10951;59.656;9.666;2022-08-21T10:41:51;18.90;90.40
21580;DHT22;10951;59.656;9.666;2022-08-21T10:47:41;19.50;87.00
21580;DHT22;10951;59.656;9.666;2022-08-21T10:52:54;20.20;83.60
21580;DHT22;10951;59.656;9.666;2022-08-21T10:55:40;20.40;81.50
21580;DHT22;10951;59.656;9.666;2022-08-21T10:58:14;20.50;81.00
21580;DHT22;10951;59.656;9.666;2022-08-21T11:00:49;20.40;79.60
21580;DHT22;10951;59.656;9.666;2022-08-21T11:03:33;20.50;80.10
21580;DHT22;10951;59.656;9.666;2022-08-21T11:06:24;20.70;79.50
21580;DHT22;10951;59.656;9.666;2022-08-21T11:09:16;20.90;78.30
21580;DHT22;10951;59.656;9.666;2022-08-21T11:11:52;20.90;77.90
21580;DHT22;10951;59.656;9.666;2022-08-21T11:17:39;20.60;77.30
21580;DHT22;10951;59.656;9.666;2022-08-21T11:23:18;20.60;79.40
21580;DHT22;10951;59.656;9.666;2022-08-21T11:26:00;20.50;77.70
21580;DHT22;10951;59.656;9.666;2022-08-21T11:28:32;20.50;78.10
21580;DHT22;10951;59.656;9.666;2022-08-21T11:33:49;20.70;77.80
21580;DHT22;10951;59.656;9.666;2022-08-21T11:44:45;20.90;77.80
21580;DHT22;10951;59.656;9.666;2022-08-21T11:50:12;21.00;76.70
21580;DHT22;10951;59.656;9.666;2022-08-21T11:53:01;21.10;75.50
21580;DHT22;10951;59.656;9.666;2022-08-21T11:55:52;21.00;75.80
21580;DHT22;10951;59.656;9.666;2022-08-21T12:00:56;20.70;75.00
21580;DHT22;10951;59.656;9.666;2022-08-21T12:06:39;20.60;74.20
21580;DHT22;10951;59.656;9.666;2022-08-21T12:09:28;20.60;73.90
21580;DHT22;10951;59.656;9.666;2022-08-21T12:12:12;20.80;73.40
21580;DHT22;10951;59.656;9.666;2022-08-21T12:14:49;21.20;72.60
21580;DHT22;10951;59.656;9.666;2022-08-21T12:17:36;21.20;71.60
21580;DHT22;10951;59.656;9.666;2022-08-21T12:23:01;21.30;70.60
21580;DHT22;10951;59.656;9.666;2022-08-21T12:25:42;21.20;69.20
21580;DHT22;10951;59.656;9.666;2022-08-21T12:28:13;20.80;70.20
21580;DHT22;10951;59.656;9.666;2022-08-21T12:30:43;20.50;70.80
21580;DHT22;10951;59.656;9.666;2022-08-21T12:36:09;20.60;72.00
21580;DHT22;10951;59.656;9.666;2022-08-21T12:38:49;20.60;73.00
21580;DHT22;10951;59.656;9.666;2022-08-21T12:41:46;20.80;72.30
21580;DHT22;10951;59.656;9.666;2022-08-21T12:44:20;20.70;71.10
21580;DHT22;10951;59.656;9.666;2022-08-21T12:47:36;20.70;72.00
21580;DHT22;10951;59.656;9.666;2022-08-21T12:50:07;20.60;71.40
21580;DHT22;10951;59.656;9.666;2022-08-21T12:52:57;20.60;71.20
21580;DHT22;10951;59.656;9.666;2022-08-21T12:55:29;20.50;71.60
21580;DHT22;10951;59.656;9.666;2022-08-21T12:57:56;20.30;71.80
21580;DHT22;10951;59.656;9.666;2022-08-21T13:00:27;20.10;72.90
21580;DHT22;10951;59.656;9.666;2022-08-21T13:02:55;20.00;74.00
21580;DHT22;10951;59.656;9.666;2022-08-21T13:05:36;19.90;74.40
21580;DHT22;10951;59.656;9.666;2022-08-21T13:08:05;19.60;75.30
21580;DHT22;10951;59.656;9.666;2022-08-21T13:10:34;19.50;77.10
21580;DHT22;10951;59.656;9.666;2022-08-21T13:13:20;19.40;79.00
21580;DHT22;10951;59.656;9.666;2022-08-21T13:16:03;19.10;81.10
21580;DHT22;10951;59.656;9.666;2022-08-21T13:18:33;18.80;84.00
21580;DHT22;10951;59.656;9.666;2022-08-21T13:21:06;18.30;78.80
21580;DHT22;10951;59.656;9.666;2022-08-21T13:23:34;17.70;77.70
21580;DHT22;10951;59.656;9.666;2022-08-21T13:26:01;17.20;78.80
21580;DHT22;10951;59.656;9.666;2022-08-21T13:28:34;16.90;81.20
21580;DHT22;10951;59.656;9.666;2022-08-21T13:31:07;16.50;81.60
21580;DHT22;10951;59.656;9.666;2022-08-21T13:33:38;16.30;83.30
21580;DHT22;10951;59.656;9.666;2022-08-21T13:36:26;16.20;84.30
21580;DHT22;10951;59.656;9.666;2022-08-21T13:38:55;16.00;83.90
21580;DHT22;10951;59.656;9.666;2022-08-21T13:41:32;15.80;87.10
21580;DHT22;10951;59.656;9.666;2022-08-21T13:44:03;15.60;87.70
21580;DHT22;10951;59.656;9.666;2022-08-21T13:46:34;15.40;89.30
21580;DHT22;10951;59.656;9.666;2022-08-21T13:49:04;15.30;90.30
21580;DHT22;10951;59.656;9.666;2022-08-21T13:51:31;15.20;91.30
21580;DHT22;10951;59.656;9.666;2022-08-21T13:53:59;15.10;91.10
21580;DHT22;10951;59.656;9.666;2022-08-21T13:56:32;15.20;92.10
21580;DHT22;10951;59.656;9.666;2022-08-21T13:59:01;15.30;92.00
21580;DHT22;10951;59.656;9.666;2022-08-21T14:01:31;15.50;92.60
21580;DHT22;10951;59.656;9.666;2022-08-21T14:04:26;15.70;93.10
21580;DHT22;10951;59.656;9.666;2022-08-21T14:06:56;15.90;93.20
21580;DHT22;10951;59.656;9.666;2022-08-21T14:09:31;16.10;92.80
21580;DHT22;10951;59.656;9.666;2022-08-21T14:12:02;16.20;92.40
21580;DHT22;10951;59.656;9.666;2022-08-21T14:14:32;16.40;93.40
21580;DHT22;10951;59.656;9.666;2022-08-21T14:17:04;16.70;93.40
21580;DHT22;10951;59.656;9.666;2022-08-21T14:19:50;16.90;91.70
21580;DHT22;10951;59.656;9.666;2022-08-21T14:25:05;17.20;90.70
21580;DHT22;10951;59.656;9.666;2022-08-21T14:27:43;17.20;90.90
21580;DHT22;10951;59.656;9.666;2022-08-21T14:30:33;17.30;91.80
21580;DHT22;10951;59.656;9.666;2022-08-21T14:33:01;17.40;91.70
21580;DHT22;10951;59.656;9.666;2022-08-21T14:35:28;17.50;91.40
21580;DHT22;10951;59.656;9.666;2022-08-21T14:37:57;17.50;91.10
21580;DHT22;10951;59.656;9.666;2022-08-21T14:40:25;17.60;91.50
21580;DHT22;10951;59.656;9.666;2022-08-21T14:42:52;17.50;91.30
21580;DHT22;10951;59.656;9.666;2022-08-21T14:45:25;17.50;90.90
21580;DHT22;10951;59.656;9.666;2022-08-21T14:47:54;17.60;91.10
21580;DHT22;10951;59.656;9.666;2022-08-21T14:50:21;17.70;91.50
21580;DHT22;10951;59.656;9.666;2022-08-21T14:52:48;18.00;91.50
21580;DHT22;10951;59.656;9.666;2022-08-21T14:55:17;18.20;91.00
21580;DHT22;10951;59.656;9.666;2022-08-21T14:57:51;18.30;90.80
21580;DHT22;10951;59.656;9.666;2022-08-21T15:00:22;18.50;90.60
21580;DHT22;10951;59.656;9.666;2022-08-21T15:03:02;18.60;90.20
21580;DHT22;10951;59.656;9.666;2022-08-21T15:05:29;18.80;90.10
21580;DHT22;10951;59.656;9.666;2022-08-21T15:07:59;18.80;90.10
21580;DHT22;10951;59.656;9.666;2022-08-21T15:10:27;18.90;90.20
21580;DHT22;10951;59.656;9.666;2022-08-21T15:12:54;19.00;90.20
21580;DHT22;10951;59.656;9.666;2022-08-21T15:15:21;19.00;90.10
21580;DHT22;10951;59.656;9.666;2022-08-21T15:17:48;19.10;90.00
21580;DHT22;10951;59.656;9.666;2022-08-21T15:20:15;19.20;89.10
21580;DHT22;10951;59.656;9.666;2022-08-21T15:22:42;19.00;88.90
21580;DHT22;10951;59.656;9.666;2022-08-21T15:25:14;19.10;88.70
21580;DHT22;10951;59.656;9.666;2022-08-21T15:27:41;19.10;87.80
21580;DHT22;10951;59.656;9.666;2022-08-21T15:30:08;19.10;88.40
21580;DHT22;10951;59.656;9.666;2022-08-21T15:32:36;19.20;88.60
21580;DHT22;10951;59.656;9.666;2022-08-21T15:35:05;19.10;86.40
21580;DHT22;10951;59.656;9.666;2022-08-21T15:37:32;19.00;86.10
21580;DHT22;10951;59.656;9.666;2022-08-21T15:39:59;19.10;85.60
21580;DHT22;10951;59.656;9.666;2022-08-21T15:42:27;19.10;85.00
21580;DHT22;10951;59.656;9.666;2022-08-21T15:44:55;18.90;85.70
21580;DHT22;10951;59.656;9.666;2022-08-21T15:47:32;18.90;84.60
21580;DHT22;10951;59.656;9.666;2022-08-21T15:50:00;18.70;83.70
21580;DHT22;10951;59.656;9.666;2022-08-21T15:52:27;18.60;85.60
21580;DHT22;10951;59.656;9.666;2022-08-21T15:54:54;18.70;86.80
21580;DHT22;10951;59.656;9.666;2022-08-21T15:57:23;18.60;84.60
21580;DHT22;10951;59.656;9.666;2022-08-21T16:00:05;18.60;85.20
21580;DHT22;10951;59.656;9.666;2022-08-21T16:02:38;18.70;85.00
21580;DHT22;10951;59.656;9.666;2022-08-21T16:05:06;18.80;84.90
21580;DHT22;10951;59.656;9.666;2022-08-21T16:07:33;19.00;84.00
21580;DHT22;10951;59.656;9.666;2022-08-21T16:10:00;19.10;82.60
21580;DHT22;10951;59.656;9.666;2022-08-21T16:12:36;19.10;80.50
21580;DHT22;10951;59.656;9.666;2022-08-21T16:15:10;19.10;81.70
21580;DHT22;10951;59.656;9.666;2022-08-21T16:17:47;19.10;81.80
21580;DHT22;10951;59.656;9.666;2022-08-21T16:20:19;19.10;80.80
21580;DHT22;10951;59.656;9.666;2022-08-21T16:22:46;19.10;81.60
21580;DHT22;10951;59.656;9.666;2022-08-21T16:25:14;19.20;81.50
21580;DHT22;10951;59.656;9.666;2022-08-21T16:27:46;19.20;80.50
21580;DHT22;10951;59.656;9.666;2022-08-21T16:30:15;19.00;79.80
21580;DHT22;10951;59.656;9.666;2022-08-21T16:32:42;18.90;80.10
21580;DHT22;10951;59.656;9.666;2022-08-21T16:35:12;18.80;81.60
21580;DHT22;10951;59.656;9.666;2022-08-21T16:37:39;18.80;81.60
21580;DHT22;10951;59.656;9.666;2022-08-21T16:40:08;18.80;81.10
21580;DHT22;10951;59.656;9.666;2022-08-21T16:42:38;18.70;81.20
21580;DHT22;10951;59.656;9.666;2022-08-21T16:45:17;18.50;82.10
21580;DHT22;10951;59.656;9.666;2022-08-21T16:47:45;18.40;83.10
21580;DHT22;10951;59.656;9.666;2022-08-21T16:50:18;18.30;83.10
21580;DHT22;10951;59.656;9.666;2022-08-21T16:52:45;18.20;83.70
21580;DHT22;10951;59.656;9.666;2022-08-21T16:55:12;18.10;84.40
21580;DHT22;10951;59.656;9.666;2022-08-21T16:57:39;17.90;85.50
21580;DHT22;10951;59.656;9.666;2022-08-21T17:00:08;17.80;86.20
21580;DHT22;10951;59.656;9.666;2022-08-21T17:02:44;17.70;87.50
21580;DHT22;10951;59.656;9.666;2022-08-21T17:05:12;17.50;88.20
21580;DHT22;10951;59.656;9.666;2022-08-21T17:07:41;17.50;89.30
21580;DHT22;10951;59.656;9.666;2022-08-21T17:10:09;17.40;89.80
21580;DHT22;10951;59.656;9.666;2022-08-21T17:12:39;17.30;89.90